createdAt,value
2019-01-24T00:00:13.993Z,71.87
2019-01-24T00:02:54.295Z,85.12
2019-01-24T00:05:34.238Z,73.97
2019-01-24T00:08:14.268Z,79.45
2019-01-24T00:10:54.288Z,86.42
2019-01-24T00:13:34.408Z,78.30
2019-01-24T00:16:14.519Z,95.25
2019-01-24T00:18:54.555Z,98.20
2019-01-24T00:21:34.453Z,105.63
2019-01-24T00:24:14.545Z,114.62
2019-01-24T00:26:54.821Z,116.15
2019-01-24T00:29:34.723Z,116.62
2019-01-24T00:32:14.633Z,123.40
2019-01-24T00:34:54.449Z,144.32
2019-01-24T00:37:34.534Z,132.27
2019-01-24T00:40:14.539Z,134.55
2019-01-24T00:42:54.855Z,133.20
2019-01-24T00:45:34.773Z,136.30
2019-01-24T00:48:14.774Z,144.75
2019-01-24T00:50:54.998Z,113.77
2019-01-24T00:53:34.911Z,142.07
2019-01-24T00:56:15.202Z,142.15
2019-01-24T00:58:55.139Z,135.60
2019-01-24T01:01:35.288Z,131.60
2019-01-24T01:04:15.160Z,126.18
2019-01-24T01:06:55.288Z,117.13
2019-01-24T01:09:35.609Z,90.03
2019-01-24T01:12:15.754Z,131.60
2019-01-24T01:14:55.774Z,129.07
2019-01-24T01:17:35.803Z,121.97
2019-01-24T01:20:15.753Z,126.78
2019-01-24T01:22:55.803Z,126.20
2019-01-24T01:25:35.894Z,120.72
2019-01-24T01:28:15.921Z,79.32
2019-01-24T01:30:55.776Z,130.47
2019-01-24T01:33:35.611Z,108.87
2019-01-24T01:36:15.375Z,113.00
2019-01-24T01:38:55.292Z,133.55
2019-01-24T01:41:35.347Z,113.52
2019-01-24T01:44:15.388Z,113.97
2019-01-24T01:46:55.305Z,72.17
2019-01-24T01:49:35.687Z,85.50
2019-01-24T01:52:15.709Z,109.92
2019-01-24T01:54:56.019Z,92.95
2019-01-24T01:57:36.031Z,75.42
2019-01-24T02:00:16.120Z,118.85
2019-01-24T02:02:55.942Z,110.85
2019-01-24T02:05:36.696Z,109.48
2019-01-24T02:08:17.637Z,77.90
2019-01-24T02:10:58.419Z,81.20
2019-01-24T02:13:38.450Z,91.45
2019-01-24T02:16:18.505Z,81.70
2019-01-24T02:18:58.440Z,73.78
2019-01-24T02:21:38.372Z,78.90
2019-01-24T02:24:18.415Z,78.90
2019-01-24T02:26:58.441Z,68.67
2019-01-24T02:29:38.496Z,69.10
2019-01-24T02:32:18.579Z,71.92
2019-01-24T02:34:58.794Z,68.65
2019-01-24T02:37:39.045Z,46.37
2019-01-24T02:40:19.025Z,76.72
2019-01-24T02:42:59.017Z,75.25
2019-01-24T02:45:39.102Z,78.90
2019-01-24T02:48:19.326Z,78.65
2019-01-24T02:50:59.477Z,74.85
2019-01-24T02:53:39.261Z,69.22
2019-01-24T02:56:19.243Z,76.00
2019-01-24T02:58:59.063Z,77.42
2019-01-24T03:01:39.190Z,75.50
2019-01-24T03:04:18.969Z,65.42
2019-01-24T03:06:59.032Z,56.75
2019-01-24T03:09:38.942Z,72.25
2019-01-24T03:12:19.161Z,79.03
2019-01-24T03:14:59.201Z,72.17
2019-01-24T03:17:39.134Z,75.50
2019-01-24T03:20:19.122Z,72.08
2019-01-24T03:22:59.181Z,74.10
2019-01-24T03:25:39.137Z,53.30
2019-01-24T03:28:19.287Z,66.72
2019-01-24T03:30:59.422Z,58.00
2019-01-24T03:33:39.486Z,64.17
2019-01-24T03:36:19.794Z,71.82
2019-01-24T03:38:59.580Z,75.60
2019-01-24T03:41:39.529Z,71.30
2019-01-24T03:44:19.337Z,74.27
2019-01-24T03:46:59.423Z,76.80
2019-01-24T03:49:39.317Z,71.92
2019-01-24T03:52:19.464Z,60.80
2019-01-24T03:54:59.522Z,63.48
2019-01-24T03:57:39.584Z,65.60
2019-01-24T04:00:19.525Z,57.20
2019-01-24T04:02:59.333Z,70.85
2019-01-24T04:05:39.456Z,55.10
2019-01-24T04:08:19.522Z,59.77
2019-01-24T04:10:59.673Z,65.08
2019-01-24T04:13:39.922Z,64.25
2019-01-24T04:16:19.806Z,60.45
2019-01-24T04:19:00.030Z,59.27
2019-01-24T04:21:39.880Z,63.90
2019-01-24T04:24:19.831Z,65.42
2019-01-24T04:27:00.025Z,58.05
2019-01-24T04:29:39.871Z,65.03
2019-01-24T04:32:19.738Z,43.65
2019-01-24T04:34:59.727Z,65.45
2019-01-24T04:37:39.946Z,60.67
2019-01-24T04:40:19.701Z,58.13
2019-01-24T04:42:59.716Z,60.98
2019-01-24T04:45:39.875Z,55.00
2019-01-24T04:48:20.029Z,64.62
2019-01-24T04:50:59.962Z,45.00
2019-01-24T04:53:40.274Z,41.77
2019-01-24T04:56:20.526Z,55.75
2019-01-24T04:59:00.868Z,56.02
2019-01-24T05:01:40.865Z,56.00
2019-01-24T05:04:21.064Z,51.90
2019-01-24T05:07:00.981Z,51.28
2019-01-24T05:09:41.119Z,54.90
2019-01-24T05:12:21.297Z,47.88
2019-01-24T05:15:01.326Z,46.05
2019-01-24T05:17:41.238Z,42.13
2019-01-24T05:20:21.299Z,40.80
2019-01-24T05:23:01.240Z,48.42
2019-01-24T05:25:41.309Z,46.70
2019-01-24T05:28:21.580Z,45.95
2019-01-24T05:31:01.760Z,48.08
2019-01-24T05:33:41.924Z,52.38
2019-01-24T05:36:22.194Z,44.77
2019-01-24T05:39:03.502Z,46.23
2019-01-24T05:41:43.430Z,45.98
2019-01-24T05:44:23.369Z,45.60
2019-01-24T05:47:03.498Z,49.83
2019-01-24T05:49:43.824Z,50.03
2019-01-24T05:52:23.806Z,47.33
2019-01-24T05:55:03.816Z,52.85
2019-01-24T05:57:43.861Z,50.92
2019-01-24T06:03:23.077Z,38.60
2019-01-24T06:06:03.058Z,47.73
2019-01-24T06:08:42.788Z,52.48
2019-01-24T06:11:22.669Z,50.28
2019-01-24T06:14:02.795Z,48.78
2019-01-24T06:16:42.939Z,48.23
2019-01-24T06:19:22.797Z,48.75
2019-01-24T06:22:02.941Z,59.48
2019-01-24T06:24:42.955Z,52.43
2019-01-24T06:27:22.961Z,52.15
2019-01-24T06:30:02.977Z,47.70
2019-01-24T06:32:43.058Z,45.00
2019-01-24T06:35:23.126Z,50.65
2019-01-24T06:38:03.208Z,46.98
2019-01-24T06:40:43.078Z,48.17
2019-01-24T06:43:23.059Z,42.17
2019-01-24T06:46:03.166Z,48.50
2019-01-24T06:48:43.269Z,45.08
2019-01-24T06:51:23.377Z,50.52
2019-01-24T06:54:03.313Z,50.45
2019-01-24T06:56:43.463Z,46.75
2019-01-24T06:59:23.656Z,50.03
2019-01-24T07:02:03.938Z,43.65
2019-01-24T07:04:43.972Z,53.92
2019-01-24T07:07:24.278Z,48.80
2019-01-24T07:10:04.377Z,38.15
2019-01-24T07:12:44.590Z,48.20
2019-01-24T07:15:24.675Z,46.33
2019-01-24T07:18:04.665Z,42.00
2019-01-24T07:20:45.002Z,46.15
2019-01-24T07:23:25.042Z,42.70
2019-01-24T07:26:05.186Z,45.67
2019-01-24T07:28:45.365Z,54.00
2019-01-24T07:31:25.385Z,48.02
2019-01-24T07:34:05.677Z,54.25
2019-01-24T07:36:45.645Z,58.23
2019-01-24T07:39:25.863Z,58.87
2019-01-24T07:42:06.101Z,45.65
2019-01-24T07:44:46.097Z,40.20
2019-01-24T07:47:26.189Z,44.67
2019-01-24T07:50:06.192Z,45.12
2019-01-24T07:52:46.173Z,39.78
2019-01-24T07:55:26.356Z,39.03
2019-01-24T07:58:06.386Z,41.95
2019-01-24T08:00:46.372Z,30.82
2019-01-24T08:03:26.578Z,43.58
2019-01-24T08:06:09.176Z,37.53
2019-01-24T08:08:48.337Z,41.77
2019-01-24T08:11:28.536Z,38.45
2019-01-24T08:14:08.778Z,40.85
2019-01-24T08:16:48.665Z,49.35
2019-01-24T08:19:28.685Z,49.38
2019-01-24T08:22:08.505Z,36.63
2019-01-24T08:24:48.550Z,34.25
2019-01-24T08:27:29.918Z,35.83
2019-01-24T08:30:10.561Z,41.10
2019-01-24T08:32:50.536Z,36.25
2019-01-24T08:35:30.595Z,37.53
2019-01-24T08:38:10.473Z,38.63
2019-01-24T08:40:50.638Z,47.33
2019-01-24T08:43:30.760Z,45.43
2019-01-24T08:46:10.947Z,42.35
2019-01-24T08:48:50.832Z,42.33
2019-01-24T08:51:31.057Z,42.15
2019-01-24T08:54:11.253Z,37.17
2019-01-24T08:56:51.232Z,47.27
2019-01-24T08:59:31.305Z,54.48
2019-01-24T09:02:11.434Z,56.92
2019-01-24T09:04:51.453Z,53.92
2019-01-24T09:07:31.532Z,53.52
2019-01-24T09:10:11.349Z,49.38
2019-01-24T09:12:51.533Z,59.08
2019-01-24T09:15:31.388Z,61.02
2019-01-24T09:18:11.715Z,63.90
2019-01-24T09:20:51.573Z,57.65
2019-01-24T09:23:31.744Z,68.55
2019-01-24T09:26:11.905Z,66.30
2019-01-24T09:28:52.040Z,61.85
2019-01-24T09:31:32.126Z,42.03
2019-01-24T09:34:12.166Z,63.08
2019-01-24T09:36:52.198Z,58.63
2019-01-24T09:39:32.212Z,60.95
2019-01-24T09:42:11.932Z,61.55
2019-01-24T09:44:52.558Z,59.60
2019-01-24T09:47:33.337Z,53.55
2019-01-24T09:50:13.189Z,60.25
2019-01-24T09:52:53.125Z,65.83
2019-01-24T09:55:33.200Z,64.17
2019-01-24T09:58:13.364Z,61.30
2019-01-24T10:00:53.367Z,60.80
2019-01-24T10:03:33.372Z,64.80
2019-01-24T10:06:13.265Z,63.02
2019-01-24T10:08:53.205Z,68.00
2019-01-24T10:11:33.256Z,62.85
2019-01-24T10:14:13.353Z,66.02
2019-01-24T10:16:53.364Z,62.65
2019-01-24T10:19:33.228Z,66.70
2019-01-24T10:22:13.441Z,67.55
2019-01-24T10:24:53.358Z,60.23
2019-01-24T10:27:33.553Z,66.67
2019-01-24T10:30:13.544Z,65.32
2019-01-24T10:32:53.766Z,68.40
2019-01-24T10:35:33.701Z,65.78
2019-01-24T10:38:13.834Z,59.03
2019-01-24T10:40:54.093Z,63.20
2019-01-24T10:43:34.031Z,60.17
2019-01-24T10:46:14.007Z,65.00
2019-01-24T10:48:54.154Z,65.97
2019-01-24T10:51:34.251Z,59.13
2019-01-24T10:54:14.533Z,66.65
2019-01-24T10:56:54.630Z,62.15
2019-01-24T10:59:34.477Z,63.05
2019-01-24T11:02:14.365Z,74.00
2019-01-24T11:04:54.371Z,72.10
2019-01-24T11:07:34.476Z,70.50
2019-01-24T11:10:14.253Z,66.30
2019-01-24T11:12:54.258Z,61.42
2019-01-24T11:15:35.500Z,65.90
2019-01-24T11:18:15.553Z,65.72
2019-01-24T11:20:55.675Z,67.85
2019-01-24T11:23:35.738Z,65.30
2019-01-24T11:26:15.774Z,64.12
2019-01-24T11:28:55.792Z,61.33
2019-01-24T11:31:35.858Z,62.03
2019-01-24T11:34:15.972Z,65.62
2019-01-24T11:36:57.200Z,61.92
2019-01-24T11:39:37.885Z,63.38
2019-01-24T11:42:17.826Z,67.85
2019-01-24T11:44:57.881Z,70.87
2019-01-24T11:47:37.937Z,67.95
2019-01-24T11:50:17.997Z,63.63
2019-01-24T11:52:57.905Z,66.55
2019-01-24T11:55:37.932Z,64.90
2019-01-24T11:58:18.017Z,64.47
2019-01-24T12:00:57.944Z,61.63
2019-01-24T12:03:37.989Z,63.60
2019-01-24T12:06:18.274Z,65.52
2019-01-24T12:08:58.137Z,62.20
2019-01-24T12:11:38.290Z,68.22
2019-01-24T12:14:18.228Z,56.35
2019-01-24T12:16:58.014Z,69.45
2019-01-24T12:19:37.952Z,65.90
2019-01-24T12:22:18.210Z,62.15
2019-01-24T12:24:58.113Z,66.15
2019-01-24T12:27:38.257Z,56.53
2019-01-24T12:30:18.392Z,58.58
2019-01-24T12:32:58.857Z,55.85
2019-01-24T12:35:38.919Z,57.78
2019-01-24T12:38:19.175Z,54.20
2019-01-24T12:40:59.037Z,57.25
2019-01-24T12:43:39.008Z,56.48
2019-01-24T12:46:19.070Z,62.83
2019-01-24T12:48:59.178Z,65.28
2019-01-24T12:51:39.226Z,54.50
2019-01-24T12:54:19.417Z,60.60
2019-01-24T12:56:59.705Z,58.30
2019-01-24T12:59:39.837Z,60.90
2019-01-24T13:02:20.001Z,60.48
2019-01-24T13:05:00.201Z,55.83
2019-01-24T13:07:40.289Z,59.63
2019-01-24T13:10:20.429Z,56.88
2019-01-24T13:13:00.625Z,56.13
2019-01-24T13:15:40.486Z,61.18
2019-01-24T13:18:20.653Z,65.40
2019-01-24T13:21:00.687Z,66.25
2019-01-24T13:23:40.628Z,58.40
2019-01-24T13:26:20.721Z,67.03
2019-01-24T13:29:00.651Z,64.40
2019-01-24T13:31:40.525Z,70.08
2019-01-24T13:34:20.419Z,64.80
2019-01-24T13:37:00.271Z,63.35
2019-01-24T13:39:40.382Z,61.83
2019-01-24T13:42:20.143Z,61.48
2019-01-24T13:45:00.335Z,57.48
2019-01-24T13:47:40.381Z,56.68
2019-01-24T13:50:20.253Z,62.25
2019-01-24T13:53:00.338Z,57.25
2019-01-24T13:55:40.394Z,65.20
2019-01-24T13:58:20.029Z,57.00
2019-01-24T14:00:59.937Z,58.05
2019-01-24T14:03:42.348Z,57.98
2019-01-24T14:06:22.017Z,61.63
2019-01-24T14:09:02.031Z,58.45
2019-01-24T14:11:41.897Z,63.80
2019-01-24T14:14:21.969Z,63.55
2019-01-24T14:17:01.751Z,57.50
2019-01-24T14:19:41.728Z,62.10
2019-01-24T14:22:21.853Z,57.40
2019-01-24T14:25:01.811Z,64.25
2019-01-24T14:27:41.965Z,65.03
2019-01-24T14:30:22.047Z,63.55
2019-01-24T14:33:02.187Z,64.17
2019-01-24T14:35:42.028Z,58.83
2019-01-24T14:38:21.985Z,64.77
2019-01-24T14:41:02.029Z,61.53
2019-01-24T14:43:42.157Z,58.17
2019-01-24T14:46:22.164Z,62.03
2019-01-24T14:49:02.234Z,55.08
2019-01-24T14:51:42.314Z,64.65
2019-01-24T14:54:22.204Z,61.42
2019-01-24T14:57:02.197Z,61.35
2019-01-24T14:59:42.220Z,59.20
2019-01-24T15:02:22.353Z,59.85
2019-01-24T15:05:02.309Z,67.62
2019-01-24T15:07:47.168Z,54.13
2019-01-24T15:10:24.209Z,58.33
2019-01-24T15:13:04.291Z,56.50
2019-01-24T15:15:44.401Z,61.18
2019-01-24T15:18:24.277Z,64.40
2019-01-24T15:21:04.370Z,62.10
2019-01-24T15:23:44.467Z,57.85
2019-01-24T15:26:24.533Z,68.42
2019-01-24T15:29:04.511Z,59.35
2019-01-24T15:31:44.602Z,57.85
2019-01-24T15:34:24.608Z,63.05
2019-01-24T15:37:04.713Z,59.58
2019-01-24T15:39:44.732Z,66.92
2019-01-24T15:42:24.932Z,61.88
2019-01-24T15:45:05.233Z,64.42
2019-01-24T15:47:45.077Z,65.87
2019-01-24T15:50:25.284Z,61.33
2019-01-24T15:53:05.384Z,74.07
2019-01-24T15:55:45.328Z,65.83
2019-01-24T15:58:25.634Z,69.45
2019-01-24T16:01:05.485Z,62.35
2019-01-24T16:03:45.693Z,61.48
2019-01-24T16:06:25.548Z,65.92
2019-01-24T16:09:05.685Z,63.73
2019-01-24T16:11:45.573Z,69.45
2019-01-24T16:14:25.673Z,70.35
2019-01-24T16:17:05.568Z,63.13
2019-01-24T16:19:45.535Z,70.60
2019-01-24T16:22:25.586Z,78.95
2019-01-24T16:25:05.693Z,71.55
2019-01-24T16:27:45.574Z,69.17
2019-01-24T16:30:25.665Z,72.42
2019-01-24T16:33:05.931Z,78.95
2019-01-24T16:35:45.875Z,69.60
2019-01-24T16:38:25.756Z,68.55
2019-01-24T16:41:05.788Z,69.75
2019-01-24T16:43:45.919Z,63.63
2019-01-24T16:46:25.901Z,58.98
2019-01-24T16:49:06.024Z,67.70
2019-01-24T16:51:46.119Z,65.90
2019-01-24T16:54:26.074Z,76.55
2019-01-24T16:57:06.078Z,63.02
2019-01-24T16:59:46.336Z,69.60
2019-01-24T17:02:26.514Z,64.77
2019-01-24T17:05:06.468Z,72.95
2019-01-24T17:07:46.532Z,65.20
2019-01-24T17:10:26.625Z,65.17
2019-01-24T17:13:06.648Z,72.42
2019-01-24T17:15:46.788Z,68.35
2019-01-24T17:18:26.878Z,73.85
2019-01-24T17:21:06.969Z,69.77
2019-01-24T17:23:47.008Z,69.47
2019-01-24T17:26:27.110Z,72.22
2019-01-24T17:29:07.141Z,66.97
2019-01-24T17:31:46.929Z,61.50
2019-01-24T17:34:26.995Z,66.45
2019-01-24T17:37:07.133Z,71.77
2019-01-24T17:39:47.372Z,66.50
2019-01-24T17:42:27.213Z,69.55
2019-01-24T17:45:07.340Z,83.12
2019-01-24T17:47:47.429Z,67.67
2019-01-24T17:50:27.571Z,70.60
2019-01-24T17:53:07.534Z,72.42
2019-01-24T17:55:47.374Z,68.47
2019-01-24T17:58:27.564Z,67.15
2019-01-24T18:01:07.791Z,73.92
2019-01-24T18:03:48.038Z,69.17
2019-01-24T18:06:29.231Z,59.10
2019-01-24T18:09:10.078Z,72.10
2019-01-24T18:11:49.904Z,63.00
2019-01-24T18:14:29.948Z,66.02
2019-01-24T18:17:10.172Z,63.30
2019-01-24T18:19:50.235Z,71.28
2019-01-24T18:22:30.202Z,63.33
2019-01-24T18:25:10.034Z,68.25
2019-01-24T18:27:50.168Z,71.42
2019-01-24T18:30:30.266Z,67.92
2019-01-24T18:33:10.263Z,65.12
2019-01-24T18:35:50.341Z,69.42
2019-01-24T18:38:29.981Z,63.48
2019-01-24T18:41:10.027Z,62.48
2019-01-24T18:43:50.069Z,69.15
2019-01-24T18:46:31.913Z,69.82
2019-01-24T18:49:12.479Z,69.12
2019-01-24T18:51:53.150Z,65.75
2019-01-24T18:54:33.015Z,72.15
2019-01-24T18:57:12.893Z,68.20
2019-01-24T18:59:53.097Z,65.05
2019-01-24T19:02:33.034Z,62.35
2019-01-24T19:05:13.242Z,61.50
2019-01-24T19:07:53.018Z,67.32
2019-01-24T19:10:33.156Z,66.10
2019-01-24T19:13:13.275Z,69.82
2019-01-24T19:15:53.289Z,71.87
2019-01-24T19:18:33.396Z,64.47
2019-01-24T19:21:13.169Z,64.30
2019-01-24T19:23:53.473Z,77.72
2019-01-24T19:26:33.804Z,74.82
2019-01-24T19:29:13.826Z,72.85
2019-01-24T19:31:54.106Z,71.70
2019-01-24T19:34:34.182Z,68.25
2019-01-24T19:37:14.158Z,76.00
2019-01-24T19:39:54.294Z,69.70
2019-01-24T19:42:34.277Z,65.57
2019-01-24T19:45:14.170Z,77.00
2019-01-24T19:47:54.270Z,66.15
2019-01-24T19:50:34.230Z,71.82
2019-01-24T19:53:14.109Z,74.07
2019-01-24T19:55:54.062Z,71.35
2019-01-24T19:58:33.781Z,63.08
2019-01-24T20:01:13.876Z,69.27
2019-01-24T20:03:54.014Z,71.97
2019-01-24T20:06:34.024Z,68.20
2019-01-24T20:09:13.958Z,79.87
2019-01-24T20:11:53.941Z,71.67
2019-01-24T20:14:33.798Z,71.53
2019-01-24T20:17:13.566Z,65.32
2019-01-24T20:19:53.453Z,70.22
2019-01-24T20:22:33.682Z,73.62
2019-01-24T20:25:13.690Z,73.78
2019-01-24T20:27:54.937Z,81.20
2019-01-24T20:30:34.854Z,71.00
2019-01-24T20:33:14.906Z,74.40
2019-01-24T20:35:54.760Z,65.32
2019-01-24T20:38:34.968Z,72.80
2019-01-24T20:41:15.043Z,67.20
2019-01-24T20:43:55.039Z,78.50
2019-01-24T20:46:35.044Z,71.87
2019-01-24T20:49:15.038Z,75.35
2019-01-24T20:51:55.103Z,72.97
2019-01-24T20:54:35.245Z,72.85
2019-01-24T20:57:14.969Z,72.12
2019-01-24T20:59:54.920Z,78.55
2019-01-24T21:02:35.098Z,76.37
2019-01-24T21:05:15.634Z,71.57
2019-01-24T21:07:55.510Z,77.97
2019-01-24T21:10:35.618Z,77.97
2019-01-24T21:13:15.542Z,82.22
2019-01-24T21:15:55.416Z,92.47
2019-01-24T21:18:35.377Z,82.35
2019-01-24T21:21:15.390Z,81.02
2019-01-24T21:23:55.162Z,81.57
2019-01-24T21:26:35.076Z,86.15
2019-01-24T21:29:15.092Z,83.12
2019-01-24T21:31:55.213Z,85.32
2019-01-24T21:34:35.300Z,86.32
2019-01-24T21:37:15.392Z,90.57
2019-01-24T21:39:55.442Z,77.82
2019-01-24T21:42:35.638Z,76.53
2019-01-24T21:45:15.539Z,84.83
2019-01-24T21:47:55.545Z,85.67
2019-01-24T21:50:35.626Z,84.10
2019-01-24T21:53:15.450Z,85.85
2019-01-24T21:55:55.589Z,79.45
2019-01-24T21:58:35.660Z,83.22
2019-01-24T22:01:15.866Z,83.78
2019-01-24T22:03:56.003Z,81.40
2019-01-24T22:06:35.926Z,82.70
2019-01-24T22:09:16.879Z,88.35
2019-01-24T22:11:57.195Z,81.60
2019-01-24T22:14:37.294Z,81.40
2019-01-24T22:17:17.028Z,84.35
2019-01-24T22:19:56.979Z,91.90
2019-01-24T22:22:37.294Z,78.72
2019-01-24T22:25:17.737Z,86.60
2019-01-24T22:27:57.741Z,89.40
2019-01-24T22:30:40.254Z,83.00
2019-01-24T22:33:19.966Z,85.83
2019-01-24T22:36:00.170Z,81.85
2019-01-24T22:38:39.861Z,85.40
2019-01-24T22:41:19.941Z,80.12
2019-01-24T22:43:59.874Z,94.70
2019-01-24T22:46:39.937Z,77.67
2019-01-24T22:49:20.033Z,88.87
2019-01-24T22:52:00.195Z,87.65
2019-01-24T22:54:40.249Z,85.62
2019-01-24T22:57:20.154Z,101.55
2019-01-24T23:00:00.461Z,82.97
2019-01-24T23:02:40.234Z,82.80
2019-01-24T23:05:20.468Z,98.07
2019-01-24T23:08:00.254Z,88.97
2019-01-24T23:10:40.412Z,88.55
2019-01-24T23:13:20.533Z,81.10
2019-01-24T23:16:00.837Z,89.80
2019-01-24T23:18:40.794Z,93.03
2019-01-24T23:21:20.838Z,89.03
2019-01-24T23:24:00.703Z,86.00
2019-01-24T23:26:40.673Z,95.67
2019-01-24T23:29:20.659Z,91.78
2019-01-24T23:32:00.640Z,89.28
2019-01-24T23:34:40.702Z,89.13
2019-01-24T23:37:20.646Z,89.47
2019-01-24T23:40:00.755Z,85.70
2019-01-24T23:42:40.929Z,90.80
2019-01-24T23:45:21.029Z,85.05
2019-01-24T23:48:01.166Z,89.87
2019-01-24T23:50:41.140Z,100.18
2019-01-24T23:53:21.193Z,87.12
2019-01-24T23:56:01.228Z,85.75
2019-01-24T23:58:41.491Z,93.27
